createdAt,value
2022-12-23T00:00:02.262Z,4.7
2022-12-23T00:01:02.267Z,4.7
2022-12-23T00:02:02.041Z,4.7
2022-12-23T00:03:02.204Z,4.6
2022-12-23T00:04:01.733Z,4.6
2022-12-23T00:05:01.698Z,4.6
2022-12-23T00:06:01.754Z,4.6
2022-12-23T00:07:01.647Z,4.6
2022-12-23T00:08:01.480Z,4.6
2022-12-23T00:09:01.370Z,4.6
2022-12-23T00:10:02.359Z,4.6
2022-12-23T00:11:02.264Z,4.6
2022-12-23T00:12:02.273Z,4.6
2022-12-23T00:13:02.165Z,4.7
2022-12-23T00:14:02.123Z,4.6
2022-12-23T00:15:02.011Z,4.7
2022-12-23T00:16:01.942Z,4.6
2022-12-23T00:17:02.096Z,4.6
2022-12-23T00:18:01.699Z,4.6
2022-12-23T00:19:01.557Z,4.6
2022-12-23T00:20:01.507Z,4.6
2022-12-23T00:21:06.737Z,4.7
2022-12-23T00:22:01.964Z,4.6
2022-12-23T00:23:01.968Z,4.6
2022-12-23T00:24:01.771Z,4.6
2022-12-23T00:25:01.699Z,4.6
2022-12-23T00:26:01.700Z,4.6
2022-12-23T00:27:01.597Z,4.6
2022-12-23T00:28:01.641Z,4.6
2022-12-23T00:29:01.442Z,4.6
2022-12-23T00:30:01.470Z,4.6
2022-12-23T00:31:01.284Z,4.6
2022-12-23T00:32:02.300Z,4.6
2022-12-23T00:33:02.313Z,4.6
2022-12-23T00:34:02.189Z,4.6
2022-12-23T00:35:02.149Z,4.6
2022-12-23T00:36:02.024Z,4.6
2022-12-23T00:37:02.121Z,4.7
2022-12-23T00:38:02.159Z,4.6
2022-12-23T00:39:02.023Z,4.5
2022-12-23T00:40:06.389Z,4.6
2022-12-23T00:41:01.807Z,4.6
2022-12-23T00:42:01.836Z,4.5
2022-12-23T00:43:01.640Z,4.6
2022-12-23T00:44:01.691Z,4.5
2022-12-23T00:45:01.531Z,4.6
2022-12-23T00:46:01.564Z,4.6
2022-12-23T00:47:01.323Z,4.6
2022-12-23T00:48:02.379Z,4.6
2022-12-23T00:49:02.234Z,4.6
2022-12-23T00:50:02.290Z,4.6
2022-12-23T00:51:02.125Z,4.6
2022-12-23T00:52:02.185Z,4.6
2022-12-23T00:53:01.950Z,4.6
2022-12-23T00:54:01.935Z,4.6
2022-12-23T00:55:01.834Z,4.7
2022-12-23T00:56:01.770Z,4.6
2022-12-23T00:57:01.820Z,4.6
2022-12-23T00:58:01.586Z,4.6
2022-12-23T00:59:01.608Z,4.6
2022-12-23T01:00:01.475Z,4.6
2022-12-23T01:01:01.405Z,4.6
2022-12-23T01:02:01.490Z,4.6
2022-12-23T01:03:02.045Z,4.6
2022-12-23T01:04:02.196Z,4.6
2022-12-23T01:05:02.101Z,4.6
2022-12-23T01:06:02.111Z,4.7
2022-12-23T01:07:01.897Z,4.6
2022-12-23T01:08:01.827Z,4.6
2022-12-23T01:09:01.783Z,4.6
2022-12-23T01:10:01.602Z,4.6
2022-12-23T01:11:01.571Z,4.6
2022-12-23T01:12:01.415Z,4.6
2022-12-23T01:13:01.413Z,4.6
2022-12-23T01:14:02.313Z,4.6
2022-12-23T01:15:02.199Z,4.6
2022-12-23T01:16:02.269Z,4.6
2022-12-23T01:17:01.693Z,4.5
2022-12-23T01:18:01.827Z,4.5
2022-12-23T01:19:01.721Z,4.5
2022-12-23T01:20:01.682Z,4.5
2022-12-23T01:21:01.498Z,4.5
2022-12-23T01:22:01.500Z,4.5
2022-12-23T01:23:01.357Z,4.5
2022-12-23T01:24:02.374Z,4.5
2022-12-23T01:25:02.333Z,4.6
2022-12-23T01:26:02.375Z,4.6
2022-12-23T01:27:01.320Z,4.6
2022-12-23T01:28:02.366Z,4.5
2022-12-23T01:29:02.257Z,4.6
2022-12-23T01:30:02.269Z,4.5
2022-12-23T01:31:02.234Z,4.5
2022-12-23T01:32:02.200Z,4.6
2022-12-23T01:33:02.256Z,4.5
2022-12-23T01:34:02.119Z,4.5
2022-12-23T01:35:02.182Z,4.6
2022-12-23T01:36:01.979Z,4.6
2022-12-23T01:37:02.021Z,4.5
2022-12-23T01:38:01.837Z,4.5
2022-12-23T01:39:01.760Z,4.5
2022-12-23T01:40:01.742Z,4.5
2022-12-23T01:41:01.590Z,4.5
2022-12-23T01:42:01.591Z,4.5
2022-12-23T01:43:01.458Z,4.5
2022-12-23T01:44:01.389Z,4.5
2022-12-23T01:45:02.384Z,4.5
2022-12-23T01:46:02.321Z,4.4
2022-12-23T01:47:01.414Z,4.5
2022-12-23T01:48:01.419Z,4.5
2022-12-23T01:49:01.371Z,4.5
2022-12-23T01:50:02.362Z,4.5
2022-12-23T01:51:02.256Z,4.4
2022-12-23T01:52:02.306Z,4.4
2022-12-23T01:53:07.129Z,4.4
2022-12-23T01:54:02.339Z,4.4
2022-12-23T01:55:02.246Z,4.4
2022-12-23T01:56:02.169Z,4.4
2022-12-23T01:57:02.189Z,4.4
2022-12-23T01:58:01.978Z,4.4
2022-12-23T01:59:02.019Z,4.4
2022-12-23T02:00:01.946Z,4.4
2022-12-23T02:01:01.893Z,4.4
2022-12-23T02:02:01.929Z,4.4
2022-12-23T02:03:02.284Z,4.3
2022-12-23T02:04:02.313Z,4.4
2022-12-23T02:05:02.338Z,4.4
2022-12-23T02:06:02.186Z,4.3
2022-12-23T02:07:02.230Z,4.3
2022-12-23T02:08:02.076Z,4.3
2022-12-23T02:09:02.032Z,4.3
2022-12-23T02:10:01.867Z,4.3
2022-12-23T02:11:01.770Z,4.3
2022-12-23T02:12:01.822Z,4.3
2022-12-23T02:13:01.665Z,4.2
2022-12-23T02:14:01.695Z,4.2
2022-12-23T02:15:01.499Z,4.2
2022-12-23T02:16:01.498Z,4.2
2022-12-23T02:17:02.339Z,4.3
2022-12-23T02:18:02.267Z,4.2
2022-12-23T02:19:02.302Z,4.1
2022-12-23T02:20:02.163Z,4.2
2022-12-23T02:21:02.170Z,4.2
2022-12-23T02:22:02.010Z,4.2
2022-12-23T02:23:02.174Z,4.1
2022-12-23T02:24:02.263Z,4.2
2022-12-23T02:25:02.113Z,4.2
2022-12-23T02:26:02.145Z,4.1
2022-12-23T02:27:01.990Z,4.2
2022-12-23T02:28:01.924Z,4.2
2022-12-23T02:29:01.970Z,4.1
2022-12-23T02:30:01.852Z,4.1
2022-12-23T02:31:01.739Z,4.1
2022-12-23T02:32:01.897Z,4.1
2022-12-23T02:33:01.872Z,4.1
2022-12-23T02:34:01.736Z,4.1
2022-12-23T02:35:01.776Z,4.1
2022-12-23T02:36:01.575Z,4.1
2022-12-23T02:37:01.687Z,4.1
2022-12-23T02:38:01.420Z,4.1
2022-12-23T02:39:01.439Z,4.1
2022-12-23T02:40:02.384Z,4
2022-12-23T02:41:02.281Z,4.1
2022-12-23T02:42:02.326Z,4.1
2022-12-23T02:43:02.230Z,4.1
2022-12-23T02:44:02.296Z,4.1
2022-12-23T02:45:02.130Z,4.1
2022-12-23T02:46:02.172Z,4
2022-12-23T02:47:02.211Z,4
2022-12-23T02:48:02.114Z,4
2022-12-23T02:49:02.148Z,4.1
2022-12-23T02:50:01.972Z,4.1
2022-12-23T02:51:01.930Z,4.1
2022-12-23T02:52:01.952Z,4
2022-12-23T02:53:01.780Z,4
2022-12-23T02:54:01.719Z,4
2022-12-23T02:55:01.773Z,4
2022-12-23T02:56:01.634Z,4
2022-12-23T02:57:01.632Z,4
2022-12-23T02:58:01.420Z,4
2022-12-23T02:59:01.404Z,4
2022-12-23T03:00:02.400Z,4
2022-12-23T03:01:02.373Z,4
2022-12-23T03:02:01.494Z,4
2022-12-23T03:03:01.695Z,4
2022-12-23T03:04:01.878Z,4
2022-12-23T03:05:01.991Z,4
2022-12-23T03:06:02.020Z,4
2022-12-23T03:07:07.305Z,4
2022-12-23T03:08:01.671Z,4.1
2022-12-23T03:09:01.625Z,4
2022-12-23T03:10:01.446Z,4.1
2022-12-23T03:11:01.468Z,4.1
2022-12-23T03:12:02.417Z,4.1
2022-12-23T03:13:02.309Z,4.1
2022-12-23T03:14:02.335Z,4.1
2022-12-23T03:15:02.170Z,4.1
2022-12-23T03:16:02.303Z,4.1
2022-12-23T03:17:02.160Z,4.1
2022-12-23T03:18:02.172Z,4.1
2022-12-23T03:19:01.977Z,4.2
2022-12-23T03:20:01.915Z,4.2
2022-12-23T03:21:01.961Z,4.2
2022-12-23T03:22:01.812Z,4.2
2022-12-23T03:23:01.763Z,4.2
2022-12-23T03:24:01.772Z,4.2
2022-12-23T03:25:01.563Z,4.2
2022-12-23T03:26:01.609Z,4.3
2022-12-23T03:27:01.422Z,4.2
2022-12-23T03:28:01.470Z,4.2
2022-12-23T03:29:02.392Z,4.3
2022-12-23T03:30:02.235Z,4.3
2022-12-23T03:31:02.287Z,4.3
2022-12-23T03:32:02.177Z,4.3
2022-12-23T03:33:02.244Z,4.3
2022-12-23T03:34:02.049Z,4.3
2022-12-23T03:35:02.064Z,4.3
2022-12-23T03:36:01.897Z,4.3
2022-12-23T03:37:01.826Z,4.3
2022-12-23T03:38:01.860Z,4.3
2022-12-23T03:39:01.646Z,4.4
2022-12-23T03:40:01.708Z,4.4
2022-12-23T03:41:01.521Z,4.4
2022-12-23T03:42:01.483Z,4.5
2022-12-23T03:43:01.318Z,4.4
2022-12-23T03:44:01.861Z,4.4
2022-12-23T03:45:36.774Z,4.5
2022-12-23T03:46:01.922Z,4.5
2022-12-23T03:47:01.734Z,4.5
2022-12-23T03:48:01.539Z,4.5
2022-12-23T03:49:01.535Z,4.5
2022-12-23T03:50:01.369Z,4.5
2022-12-23T03:51:02.418Z,4.5
2022-12-23T03:52:01.374Z,4.5
2022-12-23T03:53:02.337Z,4.5
2022-12-23T03:54:02.229Z,4.5
2022-12-23T03:55:02.239Z,4.5
2022-12-23T03:56:02.145Z,4.5
2022-12-23T03:57:02.182Z,4.5
2022-12-23T03:58:02.014Z,4.5
2022-12-23T03:59:01.940Z,4.5
2022-12-23T04:00:01.944Z,4.5
2022-12-23T04:01:01.798Z,4.5
2022-12-23T04:02:01.630Z,4.5
2022-12-23T04:03:02.042Z,4.6
2022-12-23T04:04:02.267Z,4.5
2022-12-23T04:05:02.273Z,4.6
2022-12-23T04:06:02.292Z,4.6
2022-12-23T04:07:02.146Z,4.6
2022-12-23T04:08:02.162Z,4.6
2022-12-23T04:09:02.005Z,4.6
2022-12-23T04:10:01.947Z,4.6
2022-12-23T04:11:01.967Z,4.6
2022-12-23T04:12:01.814Z,4.6
2022-12-23T04:13:01.770Z,4.6
2022-12-23T04:14:01.728Z,4.6
2022-12-23T04:15:02.026Z,4.7
2022-12-23T04:16:02.257Z,4.6
2022-12-23T04:17:01.504Z,4.7
2022-12-23T04:18:01.526Z,4.7
2022-12-23T04:19:01.355Z,4.7
2022-12-23T04:20:02.408Z,4.6
2022-12-23T04:21:02.262Z,4.7
2022-12-23T04:22:02.298Z,4.7
2022-12-23T04:23:02.163Z,4.6
2022-12-23T04:24:02.225Z,4.7
2022-12-23T04:25:02.053Z,4.7
2022-12-23T04:26:02.016Z,4.7
2022-12-23T04:27:01.844Z,4.7
2022-12-23T04:28:01.781Z,4.7
2022-12-23T04:29:01.791Z,4.7
2022-12-23T04:30:01.629Z,4.7
2022-12-23T04:31:01.651Z,4.6
2022-12-23T04:32:01.352Z,4.6
2022-12-23T04:33:02.364Z,4.6
2022-12-23T04:34:02.269Z,4.6
2022-12-23T04:35:02.346Z,4.5
2022-12-23T04:36:02.197Z,4.5
2022-12-23T04:37:02.244Z,4.5
2022-12-23T04:38:02.043Z,4.6
2022-12-23T04:39:02.053Z,4.6
2022-12-23T04:40:01.845Z,4.5
2022-12-23T04:41:01.781Z,4.6
2022-12-23T04:42:01.886Z,4.6
2022-12-23T04:43:01.640Z,4.6
2022-12-23T04:44:01.617Z,4.6
2022-12-23T04:45:01.412Z,4.6
2022-12-23T04:46:01.407Z,4.6
2022-12-23T04:47:02.352Z,4.6
2022-12-23T04:48:02.313Z,4.6
2022-12-23T04:49:02.322Z,4.6
2022-12-23T04:50:02.154Z,4.6
2022-12-23T04:51:02.154Z,4.6
2022-12-23T04:52:02.066Z,4.6
2022-12-23T04:53:02.066Z,4.6
2022-12-23T04:54:02.047Z,4.6
2022-12-23T04:55:01.869Z,4.6
2022-12-23T04:56:01.921Z,4.6
2022-12-23T04:57:01.737Z,4.7
2022-12-23T04:58:01.657Z,4.6
2022-12-23T04:59:01.495Z,4.6
2022-12-23T05:00:01.539Z,4.7
2022-12-23T05:01:01.394Z,4.7
2022-12-23T05:02:01.659Z,4.7
2022-12-23T05:03:02.056Z,4.6
2022-12-23T05:04:02.306Z,4.6
2022-12-23T05:05:02.186Z,4.7
2022-12-23T05:06:02.180Z,4.7
2022-12-23T05:07:02.011Z,4.7
2022-12-23T05:08:02.013Z,4.7
2022-12-23T05:09:01.825Z,4.7
2022-12-23T05:10:01.982Z,4.7
2022-12-23T05:11:02.109Z,4.7
2022-12-23T05:12:01.974Z,4.7
2022-12-23T05:13:01.924Z,4.7
2022-12-23T05:14:01.955Z,4.7
2022-12-23T05:15:01.787Z,4.7
2022-12-23T05:16:01.718Z,4.7
2022-12-23T05:17:07.043Z,4.6
2022-12-23T05:18:01.761Z,4.6
2022-12-23T05:19:01.721Z,4.6
2022-12-23T05:20:01.564Z,4.6
2022-12-23T05:21:01.573Z,4.7
2022-12-23T05:22:01.404Z,4.7
2022-12-23T05:23:01.392Z,4.6
2022-12-23T05:24:02.366Z,4.7
2022-12-23T05:25:02.264Z,4.7
2022-12-23T05:26:02.357Z,4.6
2022-12-23T05:27:02.241Z,4.7
2022-12-23T05:28:02.255Z,4.6
2022-12-23T05:29:02.121Z,4.6
2022-12-23T05:30:02.133Z,4.6
2022-12-23T05:31:01.993Z,4.6
2022-12-23T05:32:01.864Z,4.7
2022-12-23T05:33:02.083Z,4.6
2022-12-23T05:34:06.201Z,4.6
2022-12-23T05:35:01.622Z,4.7
2022-12-23T05:36:01.644Z,4.7
2022-12-23T05:37:01.424Z,4.6
2022-12-23T05:38:01.467Z,4.6
2022-12-23T05:39:01.351Z,4.6
2022-12-23T05:40:02.341Z,4.7
2022-12-23T05:41:01.420Z,4.7
2022-12-23T05:42:01.453Z,4.6
2022-12-23T05:43:02.438Z,4.6
2022-12-23T05:44:02.283Z,4.6
2022-12-23T05:45:02.321Z,4.7
2022-12-23T05:46:02.151Z,4.7
2022-12-23T05:47:02.233Z,4.7
2022-12-23T05:48:02.322Z,4.7
2022-12-23T05:49:02.142Z,4.7
2022-12-23T05:50:02.200Z,4.7
2022-12-23T05:51:02.181Z,4.7
2022-12-23T05:52:02.243Z,4.7
2022-12-23T05:53:02.074Z,4.7
2022-12-23T05:54:02.052Z,4.7
2022-12-23T05:55:01.943Z,4.8
2022-12-23T05:56:01.912Z,4.8
2022-12-23T05:57:01.934Z,4.8
2022-12-23T05:58:01.765Z,4.8
2022-12-23T05:59:01.649Z,4.8
2022-12-23T06:00:01.686Z,4.8
2022-12-23T06:01:01.432Z,4.8
2022-12-23T06:02:01.593Z,4.8
2022-12-23T06:03:02.138Z,4.9
2022-12-23T06:04:01.598Z,4.8
2022-12-23T06:05:01.974Z,4.7
2022-12-23T06:06:02.016Z,4.8
2022-12-23T06:07:01.878Z,4.8
2022-12-23T06:08:01.760Z,4.7
2022-12-23T06:09:01.708Z,4.8
2022-12-23T06:10:01.568Z,4.8
2022-12-23T06:11:01.570Z,4.8
2022-12-23T06:12:01.400Z,4.7
2022-12-23T06:13:01.422Z,4.8
2022-12-23T06:14:02.390Z,4.8
2022-12-23T06:15:02.285Z,4.8
2022-12-23T06:16:02.370Z,4.8
2022-12-23T06:17:01.418Z,4.7
2022-12-23T06:18:01.449Z,4.8
2022-12-23T06:19:01.321Z,4.8
2022-12-23T06:20:02.352Z,4.8
2022-12-23T06:21:02.186Z,4.8
2022-12-23T06:22:02.205Z,4.8
2022-12-23T06:23:02.005Z,4.8
2022-12-23T06:24:02.036Z,4.8
2022-12-23T06:25:01.820Z,4.7
2022-12-23T06:26:01.757Z,4.8
2022-12-23T06:27:01.727Z,4.8
2022-12-23T06:28:01.646Z,4.8
2022-12-23T06:29:01.675Z,4.8
2022-12-23T06:30:01.556Z,4.8
2022-12-23T06:31:01.510Z,4.8
2022-12-23T06:32:02.459Z,4.9
2022-12-23T06:33:01.374Z,4.9
2022-12-23T06:34:02.373Z,4.9
2022-12-23T06:35:02.236Z,4.9
2022-12-23T06:36:02.260Z,4.9
2022-12-23T06:37:02.117Z,5
2022-12-23T06:38:02.156Z,5
2022-12-23T06:39:02.362Z,5
2022-12-23T06:40:02.247Z,5
2022-12-23T06:41:02.307Z,4.9
2022-12-23T06:42:02.118Z,5
2022-12-23T06:43:02.142Z,5.1
2022-12-23T06:44:01.964Z,5.1
2022-12-23T06:45:01.867Z,5.1
2022-12-23T06:46:01.961Z,5
2022-12-23T06:47:01.987Z,5.1
2022-12-23T06:48:01.937Z,5.1
2022-12-23T06:49:04.021Z,5.1
2022-12-23T06:50:02.392Z,5.1
2022-12-23T06:51:02.232Z,5.1
2022-12-23T06:52:02.213Z,5.1
2022-12-23T06:53:02.101Z,5.1
2022-12-23T06:54:02.108Z,5.1
2022-12-23T06:55:01.960Z,5.1
2022-12-23T06:56:01.885Z,5.2
2022-12-23T06:57:01.881Z,5.1
2022-12-23T06:58:01.753Z,5.2
2022-12-23T06:59:01.556Z,5.2
2022-12-23T07:00:01.572Z,5.2
2022-12-23T07:01:01.484Z,5.1
2022-12-23T07:02:01.721Z,5.2
2022-12-23T07:03:02.211Z,5.2
2022-12-23T07:04:01.392Z,5.2
2022-12-23T07:05:01.410Z,5.2
2022-12-23T07:06:02.298Z,5.2
2022-12-23T07:07:02.146Z,5.2
2022-12-23T07:08:02.199Z,5.2
2022-12-23T07:09:02.085Z,5.2
2022-12-23T07:10:02.075Z,5.2
2022-12-23T07:11:01.878Z,5.2
2022-12-23T07:12:01.799Z,5.2
2022-12-23T07:13:01.810Z,5.3
2022-12-23T07:14:01.626Z,5.2
2022-12-23T07:15:01.701Z,5.3
2022-12-23T07:16:01.461Z,5.3
2022-12-23T07:17:01.589Z,5.3
2022-12-23T07:18:01.552Z,5.3
2022-12-23T07:19:01.419Z,5.2
2022-12-23T07:20:01.453Z,5.3
2022-12-23T07:21:02.402Z,5.3
2022-12-23T07:22:02.263Z,5.4
2022-12-23T07:23:02.335Z,5.3
2022-12-23T07:24:01.856Z,5.3
2022-12-23T07:25:01.929Z,5.4
2022-12-23T07:26:01.715Z,5.3
2022-12-23T07:27:01.785Z,5.4
2022-12-23T07:28:01.597Z,5.4
2022-12-23T07:29:01.622Z,5.4
2022-12-23T07:30:01.400Z,5.4
2022-12-23T07:31:01.450Z,5.4
2022-12-23T07:32:01.425Z,5.4
2022-12-23T07:33:01.436Z,5.4
2022-12-23T07:34:02.395Z,5.4
2022-12-23T07:35:02.267Z,5.4
2022-12-23T07:36:02.287Z,5.4
2022-12-23T07:37:02.152Z,5.4
2022-12-23T07:38:02.198Z,5.4
2022-12-23T07:39:02.048Z,5.4
2022-12-23T07:40:06.729Z,5.5
2022-12-23T07:41:01.734Z,5.5
2022-12-23T07:42:25.407Z,5.5
2022-12-23T07:43:01.670Z,5.5
2022-12-23T07:44:01.685Z,5.5
2022-12-23T07:45:01.467Z,5.5
2022-12-23T07:46:01.437Z,5.5
2022-12-23T07:47:01.365Z,5.5
2022-12-23T07:48:02.409Z,5.5
2022-12-23T07:49:02.293Z,5.5
2022-12-23T07:50:02.283Z,5.5
2022-12-23T07:51:02.126Z,5.6
2022-12-23T07:52:02.100Z,5.5
2022-12-23T07:53:01.928Z,5.5
2022-12-23T07:54:01.801Z,5.5
2022-12-23T07:55:01.861Z,5.5
2022-12-23T07:56:01.646Z,5.5
2022-12-23T07:57:01.711Z,5.5
2022-12-23T07:58:01.507Z,5.6
2022-12-23T07:59:01.466Z,5.5
2022-12-23T08:00:01.361Z,5.5
2022-12-23T08:01:02.474Z,5.6
2022-12-23T08:02:01.393Z,5.5
2022-12-23T08:03:01.743Z,5.5
2022-12-23T08:04:01.930Z,5.5
2022-12-23T08:05:01.950Z,5.5
2022-12-23T08:06:02.126Z,5.5
2022-12-23T08:07:01.902Z,5.5
2022-12-23T08:08:01.751Z,5.4
2022-12-23T08:09:01.773Z,5.5
2022-12-23T08:10:01.700Z,5.5
2022-12-23T08:11:01.664Z,5.5
2022-12-23T08:12:01.472Z,5.5
2022-12-23T08:13:01.490Z,5.5
2022-12-23T08:14:01.348Z,5.5
2022-12-23T08:15:02.333Z,5.5
2022-12-23T08:16:02.227Z,5.6
2022-12-23T08:17:01.727Z,5.6
2022-12-23T08:18:01.778Z,5.5
2022-12-23T08:19:01.660Z,5.6
2022-12-23T08:20:01.715Z,5.6
2022-12-23T08:21:01.513Z,5.6
2022-12-23T08:22:01.496Z,5.7
2022-12-23T08:23:01.361Z,5.7
2022-12-23T08:24:02.395Z,5.7
2022-12-23T08:25:02.249Z,5.7
2022-12-23T08:26:02.288Z,5.8
2022-12-23T08:27:02.133Z,5.8
2022-12-23T08:28:02.237Z,5.8
2022-12-23T08:29:02.017Z,5.9
2022-12-23T08:30:02.050Z,5.9
2022-12-23T08:31:01.952Z,5.8
2022-12-23T08:32:01.908Z,5.9
2022-12-23T08:33:01.971Z,6
2022-12-23T08:34:01.759Z,6
2022-12-23T08:35:01.686Z,6
2022-12-23T08:36:01.730Z,6
2022-12-23T08:37:01.574Z,6
2022-12-23T08:38:01.535Z,6.1
2022-12-23T08:39:01.377Z,6.1
2022-12-23T08:40:01.391Z,6.2
2022-12-23T08:41:02.291Z,6.1
2022-12-23T08:42:02.165Z,6.2
2022-12-23T08:43:02.228Z,6.2
2022-12-23T08:44:02.060Z,6.2
2022-12-23T08:45:02.105Z,6.2
2022-12-23T08:46:01.970Z,6.1
2022-12-23T08:47:01.895Z,6.2
2022-12-23T08:48:01.967Z,6.1
2022-12-23T08:49:01.784Z,6.1
2022-12-23T08:50:02.023Z,6.2
2022-12-23T08:51:01.971Z,6.1
2022-12-23T08:52:01.864Z,6.1
2022-12-23T08:53:01.703Z,6.1
2022-12-23T08:54:01.832Z,6.2
2022-12-23T08:55:01.656Z,6.2
2022-12-23T08:56:01.685Z,6.1
2022-12-23T08:57:01.508Z,6.1
2022-12-23T08:58:01.517Z,6.1
2022-12-23T08:59:01.356Z,6.2
2022-12-23T09:00:02.388Z,6.2
2022-12-23T09:01:02.384Z,6.2
2022-12-23T09:02:01.466Z,6.2
2022-12-23T09:03:01.962Z,6.2
2022-12-23T09:04:02.235Z,6.3
2022-12-23T09:05:01.343Z,6.3
2022-12-23T09:06:01.477Z,6.3
2022-12-23T09:07:01.346Z,6.3
2022-12-23T09:08:02.342Z,6.3
2022-12-23T09:09:02.315Z,6.3
2022-12-23T09:10:02.314Z,6.3
2022-12-23T09:11:02.154Z,6.3
2022-12-23T09:12:02.212Z,6.3
2022-12-23T09:13:02.060Z,6.3
2022-12-23T09:14:02.061Z,6.3
2022-12-23T09:15:02.218Z,6.3
2022-12-23T09:16:02.090Z,6.3
2022-12-23T09:17:01.940Z,6.4
2022-12-23T09:18:01.931Z,6.4
2022-12-23T09:19:01.813Z,6.4
2022-12-23T09:20:01.778Z,6.4
2022-12-23T09:21:01.772Z,6.4
2022-12-23T09:22:01.518Z,6.3
2022-12-23T09:23:01.496Z,6.3
2022-12-23T09:24:01.369Z,6.3
2022-12-23T09:25:04.963Z,6.3
2022-12-23T09:26:02.330Z,6.3
2022-12-23T09:27:02.195Z,6.2
2022-12-23T09:28:02.256Z,6.3
2022-12-23T09:29:02.082Z,6.3
2022-12-23T09:30:02.166Z,6.3
2022-12-23T09:31:01.963Z,6.3
2022-12-23T09:32:02.075Z,6.3
2022-12-23T09:33:02.008Z,6.3
2022-12-23T09:34:01.836Z,6.4
2022-12-23T09:35:01.741Z,6.3
2022-12-23T09:36:01.792Z,6.3
2022-12-23T09:37:01.627Z,6.3
2022-12-23T09:38:01.599Z,6.3
2022-12-23T09:39:01.392Z,6.3
2022-12-23T09:40:01.454Z,6.4
2022-12-23T09:41:02.392Z,6.4
2022-12-23T09:42:02.289Z,6.4
2022-12-23T09:43:02.306Z,6.4
2022-12-23T09:44:02.139Z,6.5
2022-12-23T09:45:02.179Z,6.5
2022-12-23T09:46:01.989Z,6.5
2022-12-23T09:47:02.016Z,6.5
2022-12-23T09:48:02.168Z,6.7
2022-12-23T09:49:02.012Z,6.7
2022-12-23T09:50:01.930Z,6.7
2022-12-23T09:51:01.937Z,6.9
2022-12-23T09:52:01.787Z,6.8
2022-12-23T09:53:01.706Z,6.7
2022-12-23T09:54:01.685Z,6.9
2022-12-23T09:55:01.509Z,6.8
2022-12-23T09:56:01.484Z,6.8
2022-12-23T09:57:01.367Z,6.8
2022-12-23T09:58:01.437Z,6.8
2022-12-23T09:59:02.375Z,6.8
2022-12-23T10:00:02.235Z,6.9
2022-12-23T10:01:02.217Z,6.9
2022-12-23T10:02:02.009Z,7
2022-12-23T10:03:02.312Z,7.1
2022-12-23T10:04:01.735Z,7
2022-12-23T10:05:01.740Z,7
2022-12-23T10:06:01.542Z,7.1
2022-12-23T10:07:03.104Z,7.3
2022-12-23T10:08:02.306Z,7.2
2022-12-23T10:09:02.146Z,7.4
2022-12-23T10:10:02.141Z,7.4
2022-12-23T10:11:01.981Z,7.4
2022-12-23T10:12:01.987Z,7.4
2022-12-23T10:13:01.826Z,7.6
2022-12-23T10:14:01.754Z,7.4
2022-12-23T10:15:01.742Z,7.6
2022-12-23T10:16:01.623Z,7.4
2022-12-23T10:17:01.727Z,7.4
2022-12-23T10:18:01.667Z,7.6
2022-12-23T10:19:01.513Z,7.5
2022-12-23T10:20:01.508Z,7.3
2022-12-23T10:21:01.347Z,7.5
2022-12-23T10:22:02.384Z,7.3
2022-12-23T10:23:02.233Z,7.3
2022-12-23T10:24:02.299Z,7.2
2022-12-23T10:25:02.147Z,7.3
2022-12-23T10:26:02.190Z,7.2
2022-12-23T10:27:02.001Z,7.2
2022-12-23T10:28:02.060Z,7.2
2022-12-23T10:29:01.851Z,7.1
2022-12-23T10:30:14.195Z,7.1
2022-12-23T10:32:01.749Z,7.1
2022-12-23T10:33:01.999Z,7.1
2022-12-23T10:34:01.856Z,7.1
2022-12-23T10:35:01.768Z,7.1
2022-12-23T10:36:01.823Z,7.1
2022-12-23T10:37:01.830Z,7.1
2022-12-23T10:38:01.921Z,7.1
2022-12-23T10:39:01.950Z,7.2
2022-12-23T10:40:01.821Z,7.1
2022-12-23T10:41:07.055Z,7.1
2022-12-23T10:42:01.420Z,7.1
2022-12-23T10:43:01.470Z,7
2022-12-23T10:44:02.406Z,7.1
2022-12-23T10:45:02.255Z,7.1
2022-12-23T10:46:02.286Z,7.1
2022-12-23T10:47:02.000Z,7.1
2022-12-23T10:48:02.024Z,7.1
2022-12-23T10:49:01.844Z,7.1
2022-12-23T10:50:01.871Z,7
2022-12-23T10:51:01.690Z,7
2022-12-23T10:52:01.588Z,7
2022-12-23T10:53:01.577Z,7.1
2022-12-23T10:54:01.406Z,7
2022-12-23T10:55:01.478Z,7
2022-12-23T10:56:02.381Z,6.9
2022-12-23T10:57:02.225Z,6.9
2022-12-23T10:58:02.264Z,6.9
2022-12-23T10:59:02.101Z,6.9
2022-12-23T11:00:02.152Z,7
2022-12-23T11:01:02.001Z,6.9
2022-12-23T11:02:01.496Z,7
2022-12-23T11:03:02.134Z,7
2022-12-23T11:04:02.343Z,7
2022-12-23T11:05:02.267Z,7
2022-12-23T11:06:02.301Z,6.9
2022-12-23T11:07:26.813Z,6.9
2022-12-23T11:08:01.838Z,6.9
2022-12-23T11:09:01.892Z,7
2022-12-23T11:10:01.720Z,7
2022-12-23T11:11:01.677Z,7
2022-12-23T11:12:01.563Z,6.9
2022-12-23T11:13:01.620Z,7
2022-12-23T11:14:01.389Z,6.9
2022-12-23T11:15:01.398Z,7
2022-12-23T11:16:02.337Z,6.9
2022-12-23T11:17:02.151Z,6.8
2022-12-23T11:18:02.124Z,6.9
2022-12-23T11:19:02.011Z,8.7
2022-12-23T11:20:01.946Z,11.3
2022-12-23T11:21:01.949Z,9
2022-12-23T11:22:01.784Z,10
2022-12-23T11:23:01.776Z,8.4
2022-12-23T11:24:01.855Z,7.5
2022-12-23T11:25:01.727Z,7.4
2022-12-23T11:26:01.777Z,7.3
2022-12-23T11:27:01.622Z,7.3
2022-12-23T11:28:01.656Z,7.3
2022-12-23T11:29:01.492Z,7.2
2022-12-23T11:30:01.480Z,7.2
2022-12-23T11:31:01.336Z,7.3
2022-12-23T11:32:01.445Z,7.3
2022-12-23T11:33:01.437Z,7.1
2022-12-23T11:34:02.372Z,7.2
2022-12-23T11:35:02.284Z,7.1
2022-12-23T11:36:02.337Z,7.1
2022-12-23T11:37:07.128Z,7
2022-12-23T11:38:01.567Z,7
2022-12-23T11:39:01.574Z,7
2022-12-23T11:40:01.430Z,7
2022-12-23T11:41:01.387Z,7
2022-12-23T11:42:02.325Z,6.9
2022-12-23T11:43:02.220Z,6.9
2022-12-23T11:44:02.263Z,6.9
2022-12-23T11:45:02.092Z,7
2022-12-23T11:46:02.083Z,7
2022-12-23T11:47:01.915Z,7
2022-12-23T11:48:01.857Z,7.1
2022-12-23T11:49:01.847Z,7
2022-12-23T11:50:02.114Z,7
2022-12-23T11:51:02.154Z,6.9
2022-12-23T11:52:02.015Z,7
2022-12-23T11:53:01.924Z,6.9
2022-12-23T11:54:01.890Z,6.9
2022-12-23T11:55:01.911Z,6.9
2022-12-23T11:56:01.752Z,6.9
2022-12-23T11:57:01.766Z,7
2022-12-23T11:58:01.771Z,6.9
2022-12-23T11:59:01.624Z,6.9
2022-12-23T12:00:01.643Z,6.9
2022-12-23T12:01:01.442Z,7
2022-12-23T12:02:01.488Z,7
2022-12-23T12:03:01.493Z,6.9
2022-12-23T12:04:01.383Z,7
2022-12-23T12:05:01.564Z,7
2022-12-23T12:06:01.374Z,7
2022-12-23T12:07:01.422Z,7
2022-12-23T12:08:02.363Z,6.9
2022-12-23T12:09:02.248Z,7
2022-12-23T12:10:02.318Z,7
2022-12-23T12:11:02.129Z,7.1
2022-12-23T12:12:02.301Z,7
2022-12-23T12:13:02.102Z,6.9
2022-12-23T12:14:02.046Z,6.9
2022-12-23T12:15:01.922Z,7
2022-12-23T12:16:01.895Z,6.9
2022-12-23T12:17:01.807Z,7
2022-12-23T12:18:01.817Z,7
2022-12-23T12:19:01.632Z,6.9
2022-12-23T12:20:01.722Z,7
2022-12-23T12:21:01.547Z,7
2022-12-23T12:22:01.520Z,7.1
2022-12-23T12:23:01.350Z,7
2022-12-23T12:24:17.524Z,7
2022-12-23T12:25:01.395Z,6.9
2022-12-23T12:26:01.421Z,7
2022-12-23T12:27:02.436Z,7
2022-12-23T12:28:02.194Z,7
2022-12-23T12:29:02.184Z,7
2022-12-23T12:30:06.277Z,7.1
2022-12-23T12:31:01.427Z,7
2022-12-23T12:32:01.921Z,7
2022-12-23T12:33:01.755Z,7
2022-12-23T12:34:01.654Z,7.1
2022-12-23T12:35:01.639Z,7.1
2022-12-23T12:36:05.228Z,7.1
2022-12-23T12:37:01.687Z,7
2022-12-23T12:38:01.794Z,7.2
2022-12-23T12:39:01.640Z,7.1
2022-12-23T12:40:01.734Z,7.1
2022-12-23T12:41:01.526Z,7.1
2022-12-23T12:42:05.448Z,7.1
2022-12-23T12:43:01.725Z,7
2022-12-23T12:44:01.778Z,7.2
2022-12-23T12:45:01.622Z,7.1
2022-12-23T12:46:01.610Z,7
2022-12-23T12:47:04.017Z,7
2022-12-23T12:48:07.142Z,7
2022-12-23T12:49:01.496Z,7.1
2022-12-23T12:50:01.416Z,7.1
2022-12-23T12:51:01.394Z,7
2022-12-23T12:52:02.365Z,7
2022-12-23T12:53:02.252Z,7.1
2022-12-23T12:54:05.438Z,7
2022-12-23T12:55:02.125Z,7
2022-12-23T12:56:02.177Z,7
2022-12-23T12:57:02.000Z,7.1
2022-12-23T12:58:01.945Z,7.1
2022-12-23T12:59:01.976Z,7
2022-12-23T13:00:06.301Z,7
2022-12-23T13:01:02.305Z,7
2022-12-23T13:02:01.713Z,7
2022-12-23T13:03:01.655Z,6.9
2022-12-23T13:04:01.792Z,7
2022-12-23T13:05:01.777Z,7
2022-12-23T13:06:01.607Z,7
2022-12-23T13:07:01.505Z,7
2022-12-23T13:08:01.385Z,7
2022-12-23T13:09:01.372Z,7
2022-12-23T13:10:02.326Z,7
2022-12-23T13:11:02.201Z,7
2022-12-23T13:12:02.191Z,7
2022-12-23T13:13:02.111Z,7.1
2022-12-23T13:14:02.062Z,7
2022-12-23T13:15:01.980Z,7
2022-12-23T13:16:01.914Z,7
2022-12-23T13:17:01.985Z,7
2022-12-23T13:18:03.787Z,7
2022-12-23T13:19:01.682Z,7
2022-12-23T13:20:01.677Z,7.1
2022-12-23T13:21:01.574Z,7
2022-12-23T13:22:01.494Z,7
2022-12-23T13:23:15.094Z,6.9
2022-12-23T13:24:04.011Z,7
2022-12-23T13:25:02.224Z,7
2022-12-23T13:26:02.061Z,7
2022-12-23T13:27:02.030Z,7
2022-12-23T13:28:01.897Z,7
2022-12-23T13:29:01.849Z,7
2022-12-23T13:30:01.812Z,6.9
2022-12-23T13:31:01.638Z,7
2022-12-23T13:32:01.774Z,6.9
2022-12-23T13:33:01.715Z,7
2022-12-23T13:34:01.609Z,7
2022-12-23T13:35:01.515Z,7
2022-12-23T13:36:04.892Z,7
2022-12-23T13:37:01.551Z,6.9
2022-12-23T13:38:01.583Z,6.9
2022-12-23T13:39:01.449Z,6.9
2022-12-23T13:40:01.388Z,6.9
2022-12-23T13:41:02.314Z,6.9
2022-12-23T13:42:05.430Z,6.9
2022-12-23T13:43:02.150Z,6.8
2022-12-23T13:44:02.215Z,6.9
2022-12-23T13:45:02.034Z,6.9
2022-12-23T13:46:02.060Z,6.8
2022-12-23T13:47:01.986Z,6.8
2022-12-23T13:48:04.980Z,6.9
2022-12-23T13:49:01.323Z,6.8
2022-12-23T13:50:02.361Z,6.8
2022-12-23T13:51:02.232Z,6.9
2022-12-23T13:52:02.301Z,6.8
2022-12-23T13:53:02.147Z,6.7
2022-12-23T13:54:04.723Z,6.8
2022-12-23T13:55:02.011Z,6.8